sensor_id;sensor_type;location;lat;lon;timestamp;P1;durP1;ratioP1;P2;durP2;ratioP2
23113;SDS011;11726;50.122;8.832;2023-11-18T00:01:05;10.25;;;4.82;;
23113;SDS011;11726;50.122;8.832;2023-11-18T00:03:32;14.77;;;5.68;;
23113;SDS011;11726;50.122;8.832;2023-11-18T00:05:58;11.23;;;5.68;;
23113;SDS011;11726;50.122;8.832;2023-11-18T00:08:26;10.82;;;6.10;;
23113;SDS011;11726;50.122;8.832;2023-11-18T00:10:52;12.93;;;5.97;;
23113;SDS011;11726;50.122;8.832;2023-11-18T00:13:20;9.70;;;5.15;;
23113;SDS011;11726;50.122;8.832;2023-11-18T00:15:46;11.00;;;4.97;;
23113;SDS011;11726;50.122;8.832;2023-11-18T00:18:14;11.57;;;5.28;;
23113;SDS011;11726;50.122;8.832;2023-11-18T00:20:41;11.93;;;5.22;;
23113;SDS011;11726;50.122;8.832;2023-11-18T00:23:09;12.98;;;5.90;;
23113;SDS011;11726;50.122;8.832;2023-11-18T00:25:35;10.75;;;4.70;;
23113;SDS011;11726;50.122;8.832;2023-11-18T00:28:06;10.23;;;5.03;;
23113;SDS011;11726;50.122;8.832;2023-11-18T00:30:35;9.68;;;4.78;;
23113;SDS011;11726;50.122;8.832;2023-11-18T00:33:02;10.43;;;5.43;;
23113;SDS011;11726;50.122;8.832;2023-11-18T00:35:29;8.82;;;5.32;;
23113;SDS011;11726;50.122;8.832;2023-11-18T00:37:59;9.02;;;5.05;;
23113;SDS011;11726;50.122;8.832;2023-11-18T00:40:27;11.13;;;5.22;;
23113;SDS011;11726;50.122;8.832;2023-11-18T00:42:56;14.65;;;5.70;;
23113;SDS011;11726;50.122;8.832;2023-11-18T00:45:23;10.82;;;5.97;;
23113;SDS011;11726;50.122;8.832;2023-11-18T00:47:50;12.73;;;5.55;;
23113;SDS011;11726;50.122;8.832;2023-11-18T00:50:17;9.32;;;5.25;;
23113;SDS011;11726;50.122;8.832;2023-11-18T00:52:43;9.48;;;5.22;;
23113;SDS011;11726;50.122;8.832;2023-11-18T00:55:14;11.25;;;5.05;;
23113;SDS011;11726;50.122;8.832;2023-11-18T00:57:44;13.27;;;5.82;;
23113;SDS011;11726;50.122;8.832;2023-11-18T01:00:12;11.85;;;5.32;;
23113;SDS011;11726;50.122;8.832;2023-11-18T01:02:44;12.05;;;5.38;;
23113;SDS011;11726;50.122;8.832;2023-11-18T01:05:14;11.60;;;5.10;;
23113;SDS011;11726;50.122;8.832;2023-11-18T01:07:41;12.25;;;6.10;;
23113;SDS011;11726;50.122;8.832;2023-11-18T01:10:09;10.43;;;5.25;;
23113;SDS011;11726;50.122;8.832;2023-11-18T01:12:36;9.98;;;5.15;;
23113;SDS011;11726;50.122;8.832;2023-11-18T01:15:03;12.55;;;5.53;;
23113;SDS011;11726;50.122;8.832;2023-11-18T01:17:30;10.10;;;5.22;;
23113;SDS011;11726;50.122;8.832;2023-11-18T01:19:57;8.52;;;4.80;;
23113;SDS011;11726;50.122;8.832;2023-11-18T01:22:25;11.13;;;5.28;;
23113;SDS011;11726;50.122;8.832;2023-11-18T01:24:51;9.63;;;5.10;;
23113;SDS011;11726;50.122;8.832;2023-11-18T01:27:18;8.98;;;5.07;;
23113;SDS011;11726;50.122;8.832;2023-11-18T01:29:45;10.65;;;5.00;;
23113;SDS011;11726;50.122;8.832;2023-11-18T01:32:15;11.10;;;4.95;;
23113;SDS011;11726;50.122;8.832;2023-11-18T01:34:43;10.82;;;5.95;;
23113;SDS011;11726;50.122;8.832;2023-11-18T01:37:16;10.20;;;4.80;;
23113;SDS011;11726;50.122;8.832;2023-11-18T01:39:43;8.57;;;5.15;;
23113;SDS011;11726;50.122;8.832;2023-11-18T01:42:10;10.07;;;4.88;;
23113;SDS011;11726;50.122;8.832;2023-11-18T01:44:37;10.98;;;5.45;;
23113;SDS011;11726;50.122;8.832;2023-11-18T01:47:04;9.32;;;5.20;;
23113;SDS011;11726;50.122;8.832;2023-11-18T01:49:34;10.07;;;4.78;;
23113;SDS011;11726;50.122;8.832;2023-11-18T01:52:07;10.97;;;4.43;;
23113;SDS011;11726;50.122;8.832;2023-11-18T01:54:38;11.20;;;4.60;;
23113;SDS011;11726;50.122;8.832;2023-11-18T01:57:06;14.10;;;4.80;;
23113;SDS011;11726;50.122;8.832;2023-11-18T01:59:35;9.38;;;4.70;;
23113;SDS011;11726;50.122;8.832;2023-11-18T02:02:04;8.93;;;4.13;;
23113;SDS011;11726;50.122;8.832;2023-11-18T02:04:31;13.10;;;5.50;;
23113;SDS011;11726;50.122;8.832;2023-11-18T02:06:58;13.18;;;4.55;;
23113;SDS011;11726;50.122;8.832;2023-11-18T02:09:25;10.15;;;4.53;;
23113;SDS011;11726;50.122;8.832;2023-11-18T02:14:26;9.57;;;4.70;;
23113;SDS011;11726;50.122;8.832;2023-11-18T02:16:55;10.13;;;4.75;;
23113;SDS011;11726;50.122;8.832;2023-11-18T02:19:26;9.65;;;5.47;;
23113;SDS011;11726;50.122;8.832;2023-11-18T02:21:56;8.02;;;4.85;;
23113;SDS011;11726;50.122;8.832;2023-11-18T02:24:27;9.60;;;4.97;;
23113;SDS011;11726;50.122;8.832;2023-11-18T02:26:57;14.77;;;5.35;;
23113;SDS011;11726;50.122;8.832;2023-11-18T02:29:25;12.07;;;5.45;;
23113;SDS011;11726;50.122;8.832;2023-11-18T02:32:07;9.93;;;4.95;;
23113;SDS011;11726;50.122;8.832;2023-11-18T02:34:51;13.45;;;6.40;;
23113;SDS011;11726;50.122;8.832;2023-11-18T02:37:24;9.23;;;5.43;;
23113;SDS011;11726;50.122;8.832;2023-11-18T02:40:04;9.48;;;5.35;;
23113;SDS011;11726;50.122;8.832;2023-11-18T02:42:35;10.23;;;5.68;;
23113;SDS011;11726;50.122;8.832;2023-11-18T02:45:04;9.85;;;5.28;;
23113;SDS011;11726;50.122;8.832;2023-11-18T02:47:33;10.77;;;5.82;;
23113;SDS011;11726;50.122;8.832;2023-11-18T02:50:00;10.15;;;5.60;;
23113;SDS011;11726;50.122;8.832;2023-11-18T02:52:31;13.85;;;6.15;;
23113;SDS011;11726;50.122;8.832;2023-11-18T02:54:59;11.63;;;5.75;;
23113;SDS011;11726;50.122;8.832;2023-11-18T02:57:26;18.23;;;5.63;;
23113;SDS011;11726;50.122;8.832;2023-11-18T02:59:52;11.15;;;5.20;;
23113;SDS011;11726;50.122;8.832;2023-11-18T03:02:19;10.48;;;4.88;;
23113;SDS011;11726;50.122;8.832;2023-11-18T03:04:47;11.10;;;5.28;;
23113;SDS011;11726;50.122;8.832;2023-11-18T03:07:14;9.88;;;4.85;;
23113;SDS011;11726;50.122;8.832;2023-11-18T03:09:40;9.88;;;5.05;;
23113;SDS011;11726;50.122;8.832;2023-11-18T03:12:07;8.32;;;4.20;;
23113;SDS011;11726;50.122;8.832;2023-11-18T03:14:34;8.38;;;4.50;;
23113;SDS011;11726;50.122;8.832;2023-11-18T03:17:01;8.73;;;4.53;;
23113;SDS011;11726;50.122;8.832;2023-11-18T03:19:28;9.23;;;4.20;;
23113;SDS011;11726;50.122;8.832;2023-11-18T03:21:55;10.20;;;4.13;;
23113;SDS011;11726;50.122;8.832;2023-11-18T03:24:22;7.65;;;4.28;;
23113;SDS011;11726;50.122;8.832;2023-11-18T03:26:49;8.23;;;3.85;;
23113;SDS011;11726;50.122;8.832;2023-11-18T03:29:16;8.38;;;4.15;;
23113;SDS011;11726;50.122;8.832;2023-11-18T03:31:43;8.30;;;4.55;;
23113;SDS011;11726;50.122;8.832;2023-11-18T03:34:11;7.85;;;4.18;;
23113;SDS011;11726;50.122;8.832;2023-11-18T03:36:37;9.50;;;4.15;;
23113;SDS011;11726;50.122;8.832;2023-11-18T03:39:04;22.08;;;4.05;;
23113;SDS011;11726;50.122;8.832;2023-11-18T03:41:32;6.50;;;3.33;;
23113;SDS011;11726;50.122;8.832;2023-11-18T03:43:58;6.60;;;3.38;;
23113;SDS011;11726;50.122;8.832;2023-11-18T03:46:25;8.35;;;4.03;;
23113;SDS011;11726;50.122;8.832;2023-11-18T03:48:57;7.60;;;4.40;;
23113;SDS011;11726;50.122;8.832;2023-11-18T03:51:23;12.35;;;3.97;;
23113;SDS011;11726;50.122;8.832;2023-11-18T03:53:50;8.57;;;4.63;;
23113;SDS011;11726;50.122;8.832;2023-11-18T03:56:17;8.88;;;4.22;;
23113;SDS011;11726;50.122;8.832;2023-11-18T03:58:44;6.22;;;3.90;;
23113;SDS011;11726;50.122;8.832;2023-11-18T04:01:20;10.50;;;4.45;;
23113;SDS011;11726;50.122;8.832;2023-11-18T04:03:47;24.05;;;5.35;;
23113;SDS011;11726;50.122;8.832;2023-11-18T04:06:14;8.35;;;4.50;;
23113;SDS011;11726;50.122;8.832;2023-11-18T04:08:45;6.07;;;3.72;;
23113;SDS011;11726;50.122;8.832;2023-11-18T04:11:12;7.30;;;4.13;;
23113;SDS011;11726;50.122;8.832;2023-11-18T04:13:40;5.95;;;3.55;;
23113;SDS011;11726;50.122;8.832;2023-11-18T04:16:11;9.70;;;4.38;;
23113;SDS011;11726;50.122;8.832;2023-11-18T04:18:43;19.67;;;4.85;;
23113;SDS011;11726;50.122;8.832;2023-11-18T04:21:10;7.65;;;3.78;;
23113;SDS011;11726;50.122;8.832;2023-11-18T04:23:40;6.70;;;3.70;;
23113;SDS011;11726;50.122;8.832;2023-11-18T04:26:08;12.73;;;4.47;;
23113;SDS011;11726;50.122;8.832;2023-11-18T04:28:36;6.55;;;3.40;;
23113;SDS011;11726;50.122;8.832;2023-11-18T04:31:03;7.60;;;3.90;;
23113;SDS011;11726;50.122;8.832;2023-11-18T04:33:33;9.00;;;3.42;;
23113;SDS011;11726;50.122;8.832;2023-11-18T04:36:00;15.65;;;4.40;;
23113;SDS011;11726;50.122;8.832;2023-11-18T04:38:27;7.13;;;3.83;;
23113;SDS011;11726;50.122;8.832;2023-11-18T04:40:54;11.43;;;4.15;;
23113;SDS011;11726;50.122;8.832;2023-11-18T04:43:21;21.48;;;4.40;;
23113;SDS011;11726;50.122;8.832;2023-11-18T04:46:05;6.30;;;3.38;;
23113;SDS011;11726;50.122;8.832;2023-11-18T04:48:32;9.43;;;3.33;;
23113;SDS011;11726;50.122;8.832;2023-11-18T04:51:02;8.18;;;4.07;;
23113;SDS011;11726;50.122;8.832;2023-11-18T04:53:29;8.73;;;3.75;;
23113;SDS011;11726;50.122;8.832;2023-11-18T04:55:55;8.13;;;4.15;;
23113;SDS011;11726;50.122;8.832;2023-11-18T04:58:22;7.78;;;3.88;;
23113;SDS011;11726;50.122;8.832;2023-11-18T05:00:49;6.05;;;3.35;;
23113;SDS011;11726;50.122;8.832;2023-11-18T05:03:16;58.90;;;7.47;;
23113;SDS011;11726;50.122;8.832;2023-11-18T05:05:43;35.80;;;7.03;;
23113;SDS011;11726;50.122;8.832;2023-11-18T05:08:19;10.52;;;4.88;;
23113;SDS011;11726;50.122;8.832;2023-11-18T05:10:48;30.67;;;5.15;;
23113;SDS011;11726;50.122;8.832;2023-11-18T05:13:16;10.07;;;4.50;;
23113;SDS011;11726;50.122;8.832;2023-11-18T05:15:43;8.82;;;4.57;;
23113;SDS011;11726;50.122;8.832;2023-11-18T05:18:14;8.27;;;4.20;;
23113;SDS011;11726;50.122;8.832;2023-11-18T05:20:42;11.52;;;4.97;;
23113;SDS011;11726;50.122;8.832;2023-11-18T05:23:10;12.20;;;4.32;;
23113;SDS011;11726;50.122;8.832;2023-11-18T05:25:41;8.07;;;3.50;;
23113;SDS011;11726;50.122;8.832;2023-11-18T05:28:09;10.38;;;5.07;;
23113;SDS011;11726;50.122;8.832;2023-11-18T05:30:37;8.10;;;4.30;;
23113;SDS011;11726;50.122;8.832;2023-11-18T05:33:05;10.57;;;4.60;;
23113;SDS011;11726;50.122;8.832;2023-11-18T05:35:32;9.50;;;4.50;;
23113;SDS011;11726;50.122;8.832;2023-11-18T05:38:01;11.25;;;4.43;;
23113;SDS011;11726;50.122;8.832;2023-11-18T05:40:29;8.23;;;3.95;;
23113;SDS011;11726;50.122;8.832;2023-11-18T05:42:56;7.40;;;4.13;;
23113;SDS011;11726;50.122;8.832;2023-11-18T05:45:24;9.55;;;4.55;;
23113;SDS011;11726;50.122;8.832;2023-11-18T05:47:54;12.68;;;5.35;;
23113;SDS011;11726;50.122;8.832;2023-11-18T05:50:21;10.63;;;4.70;;
23113;SDS011;11726;50.122;8.832;2023-11-18T05:52:50;9.88;;;4.60;;
23113;SDS011;11726;50.122;8.832;2023-11-18T05:55:18;15.60;;;4.95;;
23113;SDS011;11726;50.122;8.832;2023-11-18T05:57:44;10.13;;;4.38;;
23113;SDS011;11726;50.122;8.832;2023-11-18T06:00:12;10.88;;;5.13;;
23113;SDS011;11726;50.122;8.832;2023-11-18T06:02:50;10.23;;;4.30;;
23113;SDS011;11726;50.122;8.832;2023-11-18T06:05:18;10.02;;;4.00;;
23113;SDS011;11726;50.122;8.832;2023-11-18T06:07:44;10.60;;;5.05;;
23113;SDS011;11726;50.122;8.832;2023-11-18T06:10:13;9.82;;;4.38;;
23113;SDS011;11726;50.122;8.832;2023-11-18T06:12:40;9.30;;;3.80;;
23113;SDS011;11726;50.122;8.832;2023-11-18T06:15:07;8.57;;;4.15;;
23113;SDS011;11726;50.122;8.832;2023-11-18T06:17:35;9.23;;;3.65;;
23113;SDS011;11726;50.122;8.832;2023-11-18T06:20:03;10.18;;;3.90;;
23113;SDS011;11726;50.122;8.832;2023-11-18T06:22:32;20.30;;;4.45;;
23113;SDS011;11726;50.122;8.832;2023-11-18T06:25:01;11.30;;;4.05;;
23113;SDS011;11726;50.122;8.832;2023-11-18T06:27:28;12.10;;;4.40;;
23113;SDS011;11726;50.122;8.832;2023-11-18T06:29:55;11.07;;;4.65;;
23113;SDS011;11726;50.122;8.832;2023-11-18T06:32:22;20.23;;;4.80;;
23113;SDS011;11726;50.122;8.832;2023-11-18T06:34:52;16.67;;;5.57;;
23113;SDS011;11726;50.122;8.832;2023-11-18T06:37:19;13.90;;;5.68;;
23113;SDS011;11726;50.122;8.832;2023-11-18T06:39:47;12.80;;;4.68;;
23113;SDS011;11726;50.122;8.832;2023-11-18T06:42:15;9.75;;;4.82;;
23113;SDS011;11726;50.122;8.832;2023-11-18T06:44:41;12.13;;;5.05;;
23113;SDS011;11726;50.122;8.832;2023-11-18T06:47:08;15.48;;;6.03;;
23113;SDS011;11726;50.122;8.832;2023-11-18T06:49:35;12.90;;;5.55;;
23113;SDS011;11726;50.122;8.832;2023-11-18T06:52:03;14.07;;;5.22;;
23113;SDS011;11726;50.122;8.832;2023-11-18T06:54:30;14.93;;;6.50;;
23113;SDS011;11726;50.122;8.832;2023-11-18T06:56:59;15.40;;;5.95;;
23113;SDS011;11726;50.122;8.832;2023-11-18T06:59:26;16.58;;;5.90;;
23113;SDS011;11726;50.122;8.832;2023-11-18T07:01:53;13.95;;;5.70;;
23113;SDS011;11726;50.122;8.832;2023-11-18T07:04:19;14.38;;;5.47;;
23113;SDS011;11726;50.122;8.832;2023-11-18T07:06:46;22.10;;;6.13;;
23113;SDS011;11726;50.122;8.832;2023-11-18T07:09:13;17.00;;;6.57;;
23113;SDS011;11726;50.122;8.832;2023-11-18T07:11:44;12.82;;;5.85;;
23113;SDS011;11726;50.122;8.832;2023-11-18T07:14:13;15.45;;;5.43;;
23113;SDS011;11726;50.122;8.832;2023-11-18T07:16:41;14.52;;;4.95;;
23113;SDS011;11726;50.122;8.832;2023-11-18T07:19:08;11.93;;;5.15;;
23113;SDS011;11726;50.122;8.832;2023-11-18T07:21:41;14.80;;;5.10;;
23113;SDS011;11726;50.122;8.832;2023-11-18T07:24:07;17.13;;;5.35;;
23113;SDS011;11726;50.122;8.832;2023-11-18T07:26:35;16.42;;;4.65;;
23113;SDS011;11726;50.122;8.832;2023-11-18T07:29:02;13.82;;;5.15;;
23113;SDS011;11726;50.122;8.832;2023-11-18T07:31:28;14.93;;;4.57;;
23113;SDS011;11726;50.122;8.832;2023-11-18T07:33:55;20.50;;;5.53;;
23113;SDS011;11726;50.122;8.832;2023-11-18T07:36:22;16.00;;;5.60;;
23113;SDS011;11726;50.122;8.832;2023-11-18T07:38:49;19.45;;;5.53;;
23113;SDS011;11726;50.122;8.832;2023-11-18T07:41:18;13.88;;;5.05;;
23113;SDS011;11726;50.122;8.832;2023-11-18T07:43:56;17.23;;;5.32;;
23113;SDS011;11726;50.122;8.832;2023-11-18T07:46:23;14.40;;;4.38;;
23113;SDS011;11726;50.122;8.832;2023-11-18T07:48:51;16.50;;;5.47;;
23113;SDS011;11726;50.122;8.832;2023-11-18T07:51:18;16.92;;;5.03;;
23113;SDS011;11726;50.122;8.832;2023-11-18T07:53:49;13.80;;;4.95;;
23113;SDS011;11726;50.122;8.832;2023-11-18T07:56:16;16.75;;;5.25;;
23113;SDS011;11726;50.122;8.832;2023-11-18T07:58:43;14.07;;;4.72;;
23113;SDS011;11726;50.122;8.832;2023-11-18T08:01:14;13.35;;;4.75;;
23113;SDS011;11726;50.122;8.832;2023-11-18T08:03:42;19.83;;;5.40;;
23113;SDS011;11726;50.122;8.832;2023-11-18T08:06:10;17.42;;;4.88;;
23113;SDS011;11726;50.122;8.832;2023-11-18T08:08:38;14.30;;;5.43;;
23113;SDS011;11726;50.122;8.832;2023-11-18T08:11:05;14.30;;;4.65;;
23113;SDS011;11726;50.122;8.832;2023-11-18T08:13:32;20.92;;;5.97;;
23113;SDS011;11726;50.122;8.832;2023-11-18T08:15:59;18.33;;;6.45;;
23113;SDS011;11726;50.122;8.832;2023-11-18T08:18:27;19.83;;;6.18;;
23113;SDS011;11726;50.122;8.832;2023-11-18T08:20:55;19.88;;;6.85;;
23113;SDS011;11726;50.122;8.832;2023-11-18T08:23:23;21.00;;;5.47;;
23113;SDS011;11726;50.122;8.832;2023-11-18T08:25:51;17.95;;;6.07;;
23113;SDS011;11726;50.122;8.832;2023-11-18T08:28:17;18.65;;;6.32;;
23113;SDS011;11726;50.122;8.832;2023-11-18T08:30:44;20.90;;;6.35;;
23113;SDS011;11726;50.122;8.832;2023-11-18T08:33:11;22.20;;;6.90;;
23113;SDS011;11726;50.122;8.832;2023-11-18T08:35:38;22.23;;;6.63;;
23113;SDS011;11726;50.122;8.832;2023-11-18T08:38:06;20.58;;;6.65;;
23113;SDS011;11726;50.122;8.832;2023-11-18T08:40:33;23.20;;;6.68;;
23113;SDS011;11726;50.122;8.832;2023-11-18T08:43:01;25.63;;;6.20;;
23113;SDS011;11726;50.122;8.832;2023-11-18T08:45:31;17.27;;;5.65;;
23113;SDS011;11726;50.122;8.832;2023-11-18T08:48:00;21.35;;;7.20;;
23113;SDS011;11726;50.122;8.832;2023-11-18T08:50:33;25.45;;;6.40;;
23113;SDS011;11726;50.122;8.832;2023-11-18T08:53:01;25.48;;;6.97;;
23113;SDS011;11726;50.122;8.832;2023-11-18T08:55:31;26.40;;;6.68;;
23113;SDS011;11726;50.122;8.832;2023-11-18T08:58:10;28.15;;;7.95;;
23113;SDS011;11726;50.122;8.832;2023-11-18T09:00:44;21.65;;;6.57;;
23113;SDS011;11726;50.122;8.832;2023-11-18T09:03:22;27.50;;;7.53;;
23113;SDS011;11726;50.122;8.832;2023-11-18T09:05:51;23.80;;;6.63;;
23113;SDS011;11726;50.122;8.832;2023-11-18T09:11:06;26.30;;;8.05;;
23113;SDS011;11726;50.122;8.832;2023-11-18T09:13:34;27.85;;;8.45;;
23113;SDS011;11726;50.122;8.832;2023-11-18T09:16:02;30.60;;;8.25;;
23113;SDS011;11726;50.122;8.832;2023-11-18T09:18:34;22.25;;;7.05;;
23113;SDS011;11726;50.122;8.832;2023-11-18T09:21:09;25.10;;;7.90;;
23113;SDS011;11726;50.122;8.832;2023-11-18T09:23:42;31.95;;;7.82;;
23113;SDS011;11726;50.122;8.832;2023-11-18T09:26:09;31.08;;;8.40;;
23113;SDS011;11726;50.122;8.832;2023-11-18T09:28:37;25.42;;;7.82;;
23113;SDS011;11726;50.122;8.832;2023-11-18T09:31:04;24.48;;;8.60;;
23113;SDS011;11726;50.122;8.832;2023-11-18T09:33:32;25.02;;;7.78;;
23113;SDS011;11726;50.122;8.832;2023-11-18T09:36:10;28.77;;;8.02;;
23113;SDS011;11726;50.122;8.832;2023-11-18T09:38:39;24.52;;;8.20;;
23113;SDS011;11726;50.122;8.832;2023-11-18T09:41:12;28.00;;;8.15;;
23113;SDS011;11726;50.122;8.832;2023-11-18T09:43:40;27.67;;;8.13;;
23113;SDS011;11726;50.122;8.832;2023-11-18T09:46:15;28.05;;;9.73;;
23113;SDS011;11726;50.122;8.832;2023-11-18T09:48:48;21.42;;;8.60;;
23113;SDS011;11726;50.122;8.832;2023-11-18T09:51:26;26.00;;;8.93;;
23113;SDS011;11726;50.122;8.832;2023-11-18T09:53:59;26.75;;;8.73;;
23113;SDS011;11726;50.122;8.832;2023-11-18T09:59:23;23.70;;;8.02;;
23113;SDS011;11726;50.122;8.832;2023-11-18T10:02:02;26.08;;;7.72;;
23113;SDS011;11726;50.122;8.832;2023-11-18T10:04:30;23.63;;;8.50;;
23113;SDS011;11726;50.122;8.832;2023-11-18T10:06:57;35.95;;;9.45;;
23113;SDS011;11726;50.122;8.832;2023-11-18T10:09:28;29.23;;;8.52;;
23113;SDS011;11726;50.122;8.832;2023-11-18T10:11:55;27.00;;;8.77;;
23113;SDS011;11726;50.122;8.832;2023-11-18T10:14:35;28.33;;;9.63;;
23113;SDS011;11726;50.122;8.832;2023-11-18T10:17:05;22.80;;;8.73;;
23113;SDS011;11726;50.122;8.832;2023-11-18T10:19:49;27.73;;;9.35;;
23113;SDS011;11726;50.122;8.832;2023-11-18T10:22:27;25.60;;;9.50;;
23113;SDS011;11726;50.122;8.832;2023-11-18T10:24:56;26.77;;;8.82;;
23113;SDS011;11726;50.122;8.832;2023-11-18T10:27:23;21.90;;;8.88;;
23113;SDS011;11726;50.122;8.832;2023-11-18T10:29:57;21.42;;;8.23;;
23113;SDS011;11726;50.122;8.832;2023-11-18T10:32:29;21.23;;;7.78;;
23113;SDS011;11726;50.122;8.832;2023-11-18T10:35:01;22.52;;;9.73;;
23113;SDS011;11726;50.122;8.832;2023-11-18T10:37:31;19.80;;;8.23;;
23113;SDS011;11726;50.122;8.832;2023-11-18T10:40:03;24.55;;;9.27;;
23113;SDS011;11726;50.122;8.832;2023-11-18T10:42:31;21.40;;;8.60;;
23113;SDS011;11726;50.122;8.832;2023-11-18T10:44:59;20.42;;;7.68;;
23113;SDS011;11726;50.122;8.832;2023-11-18T10:47:33;17.85;;;7.32;;
23113;SDS011;11726;50.122;8.832;2023-11-18T10:52:36;16.40;;;7.45;;
23113;SDS011;11726;50.122;8.832;2023-11-18T10:55:07;20.25;;;7.75;;
23113;SDS011;11726;50.122;8.832;2023-11-18T10:57:39;23.85;;;9.05;;
23113;SDS011;11726;50.122;8.832;2023-11-18T11:00:08;19.80;;;8.45;;
23113;SDS011;11726;50.122;8.832;2023-11-18T11:02:46;20.23;;;7.50;;
23113;SDS011;11726;50.122;8.832;2023-11-18T11:05:27;19.80;;;7.47;;
23113;SDS011;11726;50.122;8.832;2023-11-18T11:07:58;15.77;;;6.90;;
23113;SDS011;11726;50.122;8.832;2023-11-18T11:10:29;16.30;;;7.00;;
23113;SDS011;11726;50.122;8.832;2023-11-18T11:12:56;15.45;;;7.00;;
23113;SDS011;11726;50.122;8.832;2023-11-18T11:15:31;16.35;;;6.28;;
23113;SDS011;11726;50.122;8.832;2023-11-18T11:18:20;11.98;;;6.35;;
23113;SDS011;11726;50.122;8.832;2023-11-18T11:21:07;14.65;;;6.55;;
23113;SDS011;11726;50.122;8.832;2023-11-18T11:23:45;17.95;;;6.93;;
23113;SDS011;11726;50.122;8.832;2023-11-18T11:26:39;19.05;;;6.88;;
23113;SDS011;11726;50.122;8.832;2023-11-18T11:29:30;18.55;;;7.45;;
23113;SDS011;11726;50.122;8.832;2023-11-18T11:32:09;16.75;;;6.50;;
23113;SDS011;11726;50.122;8.832;2023-11-18T11:34:53;15.43;;;6.82;;
23113;SDS011;11726;50.122;8.832;2023-11-18T11:37:24;15.02;;;6.32;;
23113;SDS011;11726;50.122;8.832;2023-11-18T11:39:54;14.73;;;7.15;;
23113;SDS011;11726;50.122;8.832;2023-11-18T11:42:24;14.82;;;6.53;;
23113;SDS011;11726;50.122;8.832;2023-11-18T11:44:52;16.25;;;6.50;;
23113;SDS011;11726;50.122;8.832;2023-11-18T11:47:22;14.45;;;6.63;;
23113;SDS011;11726;50.122;8.832;2023-11-18T11:49:52;12.38;;;6.32;;
23113;SDS011;11726;50.122;8.832;2023-11-18T11:52:31;14.45;;;6.55;;
23113;SDS011;11726;50.122;8.832;2023-11-18T11:57:39;13.88;;;6.38;;
23113;SDS011;11726;50.122;8.832;2023-11-18T12:00:09;15.00;;;6.85;;
23113;SDS011;11726;50.122;8.832;2023-11-18T12:02:49;14.60;;;6.30;;
23113;SDS011;11726;50.122;8.832;2023-11-18T12:05:24;11.10;;;5.45;;
23113;SDS011;11726;50.122;8.832;2023-11-18T12:07:53;14.13;;;6.00;;
23113;SDS011;11726;50.122;8.832;2023-11-18T12:10:21;11.32;;;5.80;;
23113;SDS011;11726;50.122;8.832;2023-11-18T12:13:11;12.82;;;5.80;;
23113;SDS011;11726;50.122;8.832;2023-11-18T12:18:21;14.63;;;6.55;;
23113;SDS011;11726;50.122;8.832;2023-11-18T12:20:48;11.07;;;5.80;;
23113;SDS011;11726;50.122;8.832;2023-11-18T12:23:20;12.65;;;5.70;;
23113;SDS011;11726;50.122;8.832;2023-11-18T12:25:51;13.77;;;5.80;;
23113;SDS011;11726;50.122;8.832;2023-11-18T12:28:24;13.88;;;6.05;;
23113;SDS011;11726;50.122;8.832;2023-11-18T12:30:57;13.10;;;5.65;;
23113;SDS011;11726;50.122;8.832;2023-11-18T12:33:24;13.63;;;7.00;;
23113;SDS011;11726;50.122;8.832;2023-11-18T12:41:55;10.75;;;5.53;;
23113;SDS011;11726;50.122;8.832;2023-11-18T12:44:36;15.65;;;6.90;;
23113;SDS011;11726;50.122;8.832;2023-11-18T12:47:15;12.50;;;5.85;;
23113;SDS011;11726;50.122;8.832;2023-11-18T12:49:48;15.68;;;5.85;;
23113;SDS011;11726;50.122;8.832;2023-11-18T12:52:21;12.27;;;5.13;;
23113;SDS011;11726;50.122;8.832;2023-11-18T12:54:49;16.17;;;6.90;;
23113;SDS011;11726;50.122;8.832;2023-11-18T12:57:45;12.00;;;5.53;;
23113;SDS011;11726;50.122;8.832;2023-11-18T13:00:12;11.35;;;5.22;;
23113;SDS011;11726;50.122;8.832;2023-11-18T13:02:55;13.38;;;7.05;;
23113;SDS011;11726;50.122;8.832;2023-11-18T13:05:24;11.43;;;5.30;;
23113;SDS011;11726;50.122;8.832;2023-11-18T13:07:56;14.10;;;6.20;;
23113;SDS011;11726;50.122;8.832;2023-11-18T13:10:27;13.25;;;5.82;;
23113;SDS011;11726;50.122;8.832;2023-11-18T13:12:54;14.82;;;5.85;;
23113;SDS011;11726;50.122;8.832;2023-11-18T13:15:21;14.05;;;5.72;;
23113;SDS011;11726;50.122;8.832;2023-11-18T13:17:57;12.63;;;5.78;;
23113;SDS011;11726;50.122;8.832;2023-11-18T13:20:29;10.57;;;5.22;;
23113;SDS011;11726;50.122;8.832;2023-11-18T13:22:57;12.75;;;6.10;;
23113;SDS011;11726;50.122;8.832;2023-11-18T13:25:24;11.90;;;5.15;;
23113;SDS011;11726;50.122;8.832;2023-11-18T13:27:51;15.65;;;5.05;;
23113;SDS011;11726;50.122;8.832;2023-11-18T13:30:18;13.23;;;5.88;;
23113;SDS011;11726;50.122;8.832;2023-11-18T13:32:46;11.68;;;5.90;;
23113;SDS011;11726;50.122;8.832;2023-11-18T13:35:16;12.35;;;5.28;;
23113;SDS011;11726;50.122;8.832;2023-11-18T13:37:46;11.57;;;5.68;;
23113;SDS011;11726;50.122;8.832;2023-11-18T13:40:15;12.00;;;5.50;;
23113;SDS011;11726;50.122;8.832;2023-11-18T13:42:44;10.68;;;5.45;;
23113;SDS011;11726;50.122;8.832;2023-11-18T13:45:12;12.55;;;5.72;;
23113;SDS011;11726;50.122;8.832;2023-11-18T13:48:01;9.98;;;6.03;;
23113;SDS011;11726;50.122;8.832;2023-11-18T13:50:28;9.27;;;4.75;;
23113;SDS011;11726;50.122;8.832;2023-11-18T13:52:55;10.48;;;4.82;;
23113;SDS011;11726;50.122;8.832;2023-11-18T13:55:22;8.05;;;4.18;;
23113;SDS011;11726;50.122;8.832;2023-11-18T13:57:54;12.73;;;3.90;;
23113;SDS011;11726;50.122;8.832;2023-11-18T14:00:24;8.38;;;3.33;;
23113;SDS011;11726;50.122;8.832;2023-11-18T14:02:58;8.60;;;3.75;;
23113;SDS011;11726;50.122;8.832;2023-11-18T14:05:25;8.82;;;4.30;;
23113;SDS011;11726;50.122;8.832;2023-11-18T14:07:57;5.78;;;3.55;;
23113;SDS011;11726;50.122;8.832;2023-11-18T14:10:35;9.25;;;4.05;;
23113;SDS011;11726;50.122;8.832;2023-11-18T14:13:06;8.45;;;3.92;;
23113;SDS011;11726;50.122;8.832;2023-11-18T14:15:35;9.43;;;4.30;;
23113;SDS011;11726;50.122;8.832;2023-11-18T14:18:02;12.20;;;4.13;;
23113;SDS011;11726;50.122;8.832;2023-11-18T14:20:29;8.85;;;4.45;;
23113;SDS011;11726;50.122;8.832;2023-11-18T14:22:57;9.02;;;5.90;;
23113;SDS011;11726;50.122;8.832;2023-11-18T14:25:24;13.00;;;5.55;;
23113;SDS011;11726;50.122;8.832;2023-11-18T14:27:51;9.02;;;4.43;;
23113;SDS011;11726;50.122;8.832;2023-11-18T14:30:18;11.35;;;4.93;;
23113;SDS011;11726;50.122;8.832;2023-11-18T14:32:45;9.60;;;4.72;;
23113;SDS011;11726;50.122;8.832;2023-11-18T14:35:15;10.40;;;4.82;;
23113;SDS011;11726;50.122;8.832;2023-11-18T14:37:44;14.35;;;5.13;;
23113;SDS011;11726;50.122;8.832;2023-11-18T14:40:14;10.50;;;4.93;;
23113;SDS011;11726;50.122;8.832;2023-11-18T14:42:45;10.38;;;4.38;;
23113;SDS011;11726;50.122;8.832;2023-11-18T14:45:14;15.93;;;5.50;;
23113;SDS011;11726;50.122;8.832;2023-11-18T14:47:42;11.20;;;4.40;;
23113;SDS011;11726;50.122;8.832;2023-11-18T14:50:11;10.70;;;4.45;;
23113;SDS011;11726;50.122;8.832;2023-11-18T14:52:43;7.07;;;3.95;;
23113;SDS011;11726;50.122;8.832;2023-11-18T14:55:11;16.58;;;4.65;;
23113;SDS011;11726;50.122;8.832;2023-11-18T14:57:39;8.05;;;4.35;;
23113;SDS011;11726;50.122;8.832;2023-11-18T15:00:11;8.88;;;4.07;;
23113;SDS011;11726;50.122;8.832;2023-11-18T15:02:45;10.50;;;4.22;;
23113;SDS011;11726;50.122;8.832;2023-11-18T15:05:14;8.00;;;3.75;;
23113;SDS011;11726;50.122;8.832;2023-11-18T15:07:45;9.10;;;3.63;;
23113;SDS011;11726;50.122;8.832;2023-11-18T15:10:17;9.15;;;4.05;;
23113;SDS011;11726;50.122;8.832;2023-11-18T15:15:15;6.90;;;3.78;;
23113;SDS011;11726;50.122;8.832;2023-11-18T15:17:45;5.80;;;3.00;;